sensor_id;sensor_type;location;lat;lon;timestamp;P1;durP1;ratioP1;P2;durP2;ratioP2
10550;SDS011;5324;50.684;3.862;2023-01-16T00:02:13;2.17;;;1.10;;
10550;SDS011;5324;50.684;3.862;2023-01-16T00:04:40;1.80;;;1.30;;
10550;SDS011;5324;50.684;3.862;2023-01-16T00:07:05;1.87;;;1.30;;
10550;SDS011;5324;50.684;3.862;2023-01-16T00:09:31;1.47;;;1.30;;
10550;SDS011;5324;50.684;3.862;2023-01-16T00:11:57;1.80;;;1.30;;
10550;SDS011;5324;50.684;3.862;2023-01-16T00:14:23;1.30;;;1.20;;
10550;SDS011;5324;50.684;3.862;2023-01-16T00:16:50;2.63;;;1.53;;
10550;SDS011;5324;50.684;3.862;2023-01-16T00:19:16;1.17;;;1.00;;
10550;SDS011;5324;50.684;3.862;2023-01-16T00:21:42;2.13;;;1.70;;
10550;SDS011;5324;50.684;3.862;2023-01-16T00:24:09;2.90;;;1.23;;
10550;SDS011;5324;50.684;3.862;2023-01-16T00:26:35;1.30;;;1.20;;
10550;SDS011;5324;50.684;3.862;2023-01-16T00:29:01;1.87;;;1.20;;
10550;SDS011;5324;50.684;3.862;2023-01-16T00:31:27;5.43;;;1.70;;
10550;SDS011;5324;50.684;3.862;2023-01-16T00:33:53;2.07;;;1.47;;
10550;SDS011;5324;50.684;3.862;2023-01-16T00:36:19;5.33;;;1.30;;
10550;SDS011;5324;50.684;3.862;2023-01-16T00:38:45;1.83;;;1.10;;
10550;SDS011;5324;50.684;3.862;2023-01-16T00:41:11;0.90;;;0.90;;
10550;SDS011;5324;50.684;3.862;2023-01-16T00:43:37;2.23;;;1.60;;
10550;SDS011;5324;50.684;3.862;2023-01-16T00:46:03;1.83;;;1.50;;
10550;SDS011;5324;50.684;3.862;2023-01-16T00:48:29;1.60;;;1.50;;
10550;SDS011;5324;50.684;3.862;2023-01-16T00:50:55;3.53;;;1.00;;
10550;SDS011;5324;50.684;3.862;2023-01-16T00:53:22;3.70;;;1.57;;
10550;SDS011;5324;50.684;3.862;2023-01-16T00:55:50;2.33;;;1.20;;
10550;SDS011;5324;50.684;3.862;2023-01-16T00:58:16;3.03;;;1.30;;
10550;SDS011;5324;50.684;3.862;2023-01-16T01:00:42;2.97;;;1.47;;
10550;SDS011;5324;50.684;3.862;2023-01-16T01:03:08;1.80;;;1.27;;
10550;SDS011;5324;50.684;3.862;2023-01-16T01:05:34;1.90;;;1.27;;
10550;SDS011;5324;50.684;3.862;2023-01-16T01:08:01;1.73;;;1.43;;
10550;SDS011;5324;50.684;3.862;2023-01-16T01:10:27;2.57;;;1.43;;
10550;SDS011;5324;50.684;3.862;2023-01-16T01:12:53;3.97;;;1.20;;
10550;SDS011;5324;50.684;3.862;2023-01-16T01:15:20;3.63;;;1.47;;
10550;SDS011;5324;50.684;3.862;2023-01-16T01:17:46;4.10;;;1.50;;
10550;SDS011;5324;50.684;3.862;2023-01-16T01:20:12;3.53;;;1.87;;
10550;SDS011;5324;50.684;3.862;2023-01-16T01:22:38;3.40;;;1.50;;
10550;SDS011;5324;50.684;3.862;2023-01-16T01:25:04;3.13;;;1.77;;
10550;SDS011;5324;50.684;3.862;2023-01-16T01:27:30;3.63;;;1.87;;
10550;SDS011;5324;50.684;3.862;2023-01-16T01:29:56;4.03;;;2.13;;
10550;SDS011;5324;50.684;3.862;2023-01-16T01:32:22;2.37;;;1.90;;
10550;SDS011;5324;50.684;3.862;2023-01-16T01:34:48;6.27;;;2.03;;
10550;SDS011;5324;50.684;3.862;2023-01-16T01:37:14;4.77;;;2.00;;
10550;SDS011;5324;50.684;3.862;2023-01-16T01:39:40;4.50;;;1.80;;
10550;SDS011;5324;50.684;3.862;2023-01-16T01:42:08;7.83;;;2.07;;
10550;SDS011;5324;50.684;3.862;2023-01-16T01:45:00;2.20;;;1.87;;
10550;SDS011;5324;50.684;3.862;2023-01-16T01:47:30;5.33;;;2.20;;
10550;SDS011;5324;50.684;3.862;2023-01-16T01:49:58;3.77;;;1.93;;
10550;SDS011;5324;50.684;3.862;2023-01-16T01:52:25;4.17;;;2.17;;
10550;SDS011;5324;50.684;3.862;2023-01-16T01:54:54;6.80;;;2.20;;
10550;SDS011;5324;50.684;3.862;2023-01-16T01:57:37;4.73;;;1.87;;
10550;SDS011;5324;50.684;3.862;2023-01-16T02:02:31;4.83;;;1.60;;
10550;SDS011;5324;50.684;3.862;2023-01-16T02:04:59;3.17;;;1.60;;
10550;SDS011;5324;50.684;3.862;2023-01-16T02:07:27;3.23;;;1.93;;
10550;SDS011;5324;50.684;3.862;2023-01-16T02:09:55;4.53;;;1.97;;
10550;SDS011;5324;50.684;3.862;2023-01-16T02:12:22;4.67;;;1.83;;
10550;SDS011;5324;50.684;3.862;2023-01-16T02:14:49;4.07;;;1.77;;
10550;SDS011;5324;50.684;3.862;2023-01-16T02:17:17;5.20;;;1.77;;
10550;SDS011;5324;50.684;3.862;2023-01-16T02:30:06;7.87;;;1.57;;
10550;SDS011;5324;50.684;3.862;2023-01-16T02:40:52;5.80;;;1.90;;
10550;SDS011;5324;50.684;3.862;2023-01-16T02:43:37;7.00;;;1.80;;
10550;SDS011;5324;50.684;3.862;2023-01-16T02:46:07;6.30;;;1.77;;
10550;SDS011;5324;50.684;3.862;2023-01-16T02:48:48;2.37;;;1.43;;
10550;SDS011;5324;50.684;3.862;2023-01-16T02:53:57;5.43;;;1.83;;
10550;SDS011;5324;50.684;3.862;2023-01-16T02:56:24;4.00;;;1.37;;
10550;SDS011;5324;50.684;3.862;2023-01-16T02:58:54;4.27;;;1.33;;
10550;SDS011;5324;50.684;3.862;2023-01-16T03:01:21;4.93;;;1.50;;
10550;SDS011;5324;50.684;3.862;2023-01-16T03:11:19;4.93;;;1.57;;
10550;SDS011;5324;50.684;3.862;2023-01-16T03:14:24;2.83;;;1.33;;
10550;SDS011;5324;50.684;3.862;2023-01-16T03:26:47;3.47;;;1.80;;
10550;SDS011;5324;50.684;3.862;2023-01-16T03:37:19;3.50;;;1.50;;
10550;SDS011;5324;50.684;3.862;2023-01-16T03:39:40;4.80;;;1.30;;
10550;SDS011;5324;50.684;3.862;2023-01-16T03:42:08;3.97;;;2.00;;
10550;SDS011;5324;50.684;3.862;2023-01-16T03:44:36;8.27;;;3.43;;
10550;SDS011;5324;50.684;3.862;2023-01-16T03:47:05;7.63;;;3.50;;
10550;SDS011;5324;50.684;3.862;2023-01-16T03:49:35;2.97;;;2.00;;
10550;SDS011;5324;50.684;3.862;2023-01-16T03:52:04;5.13;;;2.10;;
10550;SDS011;5324;50.684;3.862;2023-01-16T03:54:34;2.27;;;1.50;;
10550;SDS011;5324;50.684;3.862;2023-01-16T03:57:10;2.40;;;1.30;;
10550;SDS011;5324;50.684;3.862;2023-01-16T03:59:37;3.13;;;1.37;;
10550;SDS011;5324;50.684;3.862;2023-01-16T04:02:11;4.03;;;1.40;;
10550;SDS011;5324;50.684;3.862;2023-01-16T04:07:30;2.43;;;1.17;;
10550;SDS011;5324;50.684;3.862;2023-01-16T04:10:00;3.40;;;1.00;;
10550;SDS011;5324;50.684;3.862;2023-01-16T04:12:35;6.03;;;1.63;;
10550;SDS011;5324;50.684;3.862;2023-01-16T04:15:03;2.43;;;1.40;;
10550;SDS011;5324;50.684;3.862;2023-01-16T04:17:30;3.33;;;1.80;;
10550;SDS011;5324;50.684;3.862;2023-01-16T04:19:56;2.67;;;1.53;;
10550;SDS011;5324;50.684;3.862;2023-01-16T04:22:24;5.33;;;2.00;;
10550;SDS011;5324;50.684;3.862;2023-01-16T04:24:51;3.60;;;1.37;;
10550;SDS011;5324;50.684;3.862;2023-01-16T04:27:18;3.03;;;1.47;;
10550;SDS011;5324;50.684;3.862;2023-01-16T04:29:44;2.80;;;1.23;;
10550;SDS011;5324;50.684;3.862;2023-01-16T04:32:10;3.10;;;1.10;;
10550;SDS011;5324;50.684;3.862;2023-01-16T04:34:37;2.77;;;1.40;;
10550;SDS011;5324;50.684;3.862;2023-01-16T04:37:03;2.93;;;1.10;;
10550;SDS011;5324;50.684;3.862;2023-01-16T04:39:29;3.70;;;1.23;;
10550;SDS011;5324;50.684;3.862;2023-01-16T04:41:55;4.03;;;1.47;;
10550;SDS011;5324;50.684;3.862;2023-01-16T04:44:21;2.57;;;1.00;;
10550;SDS011;5324;50.684;3.862;2023-01-16T04:46:47;2.87;;;1.23;;
10550;SDS011;5324;50.684;3.862;2023-01-16T04:49:15;3.23;;;1.40;;
10550;SDS011;5324;50.684;3.862;2023-01-16T04:51:41;4.17;;;1.40;;
10550;SDS011;5324;50.684;3.862;2023-01-16T04:54:09;2.80;;;1.10;;
10550;SDS011;5324;50.684;3.862;2023-01-16T04:56:38;1.87;;;1.13;;
10550;SDS011;5324;50.684;3.862;2023-01-16T04:59:04;2.30;;;1.13;;
10550;SDS011;5324;50.684;3.862;2023-01-16T05:01:30;4.70;;;1.00;;
10550;SDS011;5324;50.684;3.862;2023-01-16T05:04:00;0.90;;;0.90;;
10550;SDS011;5324;50.684;3.862;2023-01-16T05:06:26;2.07;;;0.70;;
10550;SDS011;5324;50.684;3.862;2023-01-16T05:08:52;4.83;;;1.23;;
10550;SDS011;5324;50.684;3.862;2023-01-16T05:11:18;0.90;;;0.90;;
10550;SDS011;5324;50.684;3.862;2023-01-16T05:13:44;1.00;;;1.00;;
10550;SDS011;5324;50.684;3.862;2023-01-16T05:16:11;2.87;;;1.00;;
10550;SDS011;5324;50.684;3.862;2023-01-16T05:18:37;1.50;;;1.07;;
10550;SDS011;5324;50.684;3.862;2023-01-16T05:21:03;1.00;;;0.87;;
10550;SDS011;5324;50.684;3.862;2023-01-16T05:25:56;0.90;;;0.73;;
10550;SDS011;5324;50.684;3.862;2023-01-16T05:28:22;1.23;;;1.00;;
10550;SDS011;5324;50.684;3.862;2023-01-16T05:30:48;1.03;;;0.93;;
10550;SDS011;5324;50.684;3.862;2023-01-16T05:33:15;1.30;;;0.90;;
10550;SDS011;5324;50.684;3.862;2023-01-16T05:35:41;2.83;;;0.80;;
10550;SDS011;5324;50.684;3.862;2023-01-16T05:38:07;1.37;;;0.97;;
10550;SDS011;5324;50.684;3.862;2023-01-16T05:40:33;1.33;;;1.10;;
10550;SDS011;5324;50.684;3.862;2023-01-16T05:43:06;1.60;;;1.03;;
10550;SDS011;5324;50.684;3.862;2023-01-16T05:45:33;0.80;;;0.80;;
10550;SDS011;5324;50.684;3.862;2023-01-16T05:48:05;0.97;;;0.77;;
10550;SDS011;5324;50.684;3.862;2023-01-16T05:50:33;1.10;;;1.10;;
10550;SDS011;5324;50.684;3.862;2023-01-16T05:52:59;1.10;;;0.70;;
10550;SDS011;5324;50.684;3.862;2023-01-16T05:55:25;2.20;;;1.00;;
10550;SDS011;5324;50.684;3.862;2023-01-16T05:57:52;1.43;;;1.30;;
10550;SDS011;5324;50.684;3.862;2023-01-16T06:00:18;0.93;;;0.90;;
10550;SDS011;5324;50.684;3.862;2023-01-16T06:02:44;0.87;;;0.87;;
10550;SDS011;5324;50.684;3.862;2023-01-16T06:05:13;1.80;;;1.00;;
10550;SDS011;5324;50.684;3.862;2023-01-16T06:07:39;4.87;;;1.10;;
10550;SDS011;5324;50.684;3.862;2023-01-16T06:10:09;1.77;;;0.70;;
10550;SDS011;5324;50.684;3.862;2023-01-16T06:12:35;0.77;;;0.77;;
10550;SDS011;5324;50.684;3.862;2023-01-16T06:15:01;1.00;;;1.00;;
10550;SDS011;5324;50.684;3.862;2023-01-16T06:17:27;1.17;;;0.97;;
10550;SDS011;5324;50.684;3.862;2023-01-16T06:19:53;1.40;;;1.00;;
10550;SDS011;5324;50.684;3.862;2023-01-16T06:22:20;0.70;;;0.70;;
10550;SDS011;5324;50.684;3.862;2023-01-16T06:24:47;0.80;;;0.80;;
10550;SDS011;5324;50.684;3.862;2023-01-16T06:27:13;0.80;;;0.80;;
10550;SDS011;5324;50.684;3.862;2023-01-16T06:29:39;0.90;;;0.90;;
10550;SDS011;5324;50.684;3.862;2023-01-16T06:32:06;0.70;;;0.70;;
10550;SDS011;5324;50.684;3.862;2023-01-16T06:34:32;0.80;;;0.80;;
10550;SDS011;5324;50.684;3.862;2023-01-16T06:36:58;0.80;;;0.80;;
10550;SDS011;5324;50.684;3.862;2023-01-16T06:39:24;0.80;;;0.77;;
10550;SDS011;5324;50.684;3.862;2023-01-16T06:41:51;1.37;;;0.83;;
10550;SDS011;5324;50.684;3.862;2023-01-16T06:44:17;0.80;;;0.80;;
10550;SDS011;5324;50.684;3.862;2023-01-16T06:46:43;0.70;;;0.70;;
10550;SDS011;5324;50.684;3.862;2023-01-16T06:49:10;0.83;;;0.83;;
10550;SDS011;5324;50.684;3.862;2023-01-16T06:51:36;0.70;;;0.70;;
10550;SDS011;5324;50.684;3.862;2023-01-16T06:54:02;1.30;;;0.83;;
10550;SDS011;5324;50.684;3.862;2023-01-16T06:56:28;0.93;;;0.90;;
10550;SDS011;5324;50.684;3.862;2023-01-16T06:58:54;1.60;;;1.07;;
10550;SDS011;5324;50.684;3.862;2023-01-16T07:01:20;1.47;;;0.90;;
10550;SDS011;5324;50.684;3.862;2023-01-16T07:03:46;0.87;;;0.80;;
10550;SDS011;5324;50.684;3.862;2023-01-16T07:06:12;0.70;;;0.70;;
10550;SDS011;5324;50.684;3.862;2023-01-16T07:08:38;1.60;;;0.90;;
10550;SDS011;5324;50.684;3.862;2023-01-16T07:11:04;0.93;;;0.80;;
10550;SDS011;5324;50.684;3.862;2023-01-16T07:13:30;0.60;;;0.60;;
10550;SDS011;5324;50.684;3.862;2023-01-16T07:15:56;1.20;;;0.87;;
10550;SDS011;5324;50.684;3.862;2023-01-16T07:18:41;0.80;;;0.77;;
10550;SDS011;5324;50.684;3.862;2023-01-16T07:21:26;0.83;;;0.83;;
10550;SDS011;5324;50.684;3.862;2023-01-16T07:24:12;1.90;;;1.17;;
10550;SDS011;5324;50.684;3.862;2023-01-16T07:26:40;1.33;;;1.03;;
10550;SDS011;5324;50.684;3.862;2023-01-16T07:29:07;0.60;;;0.60;;
10550;SDS011;5324;50.684;3.862;2023-01-16T07:31:36;0.90;;;0.90;;
10550;SDS011;5324;50.684;3.862;2023-01-16T07:34:03;0.83;;;0.80;;
10550;SDS011;5324;50.684;3.862;2023-01-16T07:36:29;1.03;;;0.90;;
10550;SDS011;5324;50.684;3.862;2023-01-16T07:38:55;0.87;;;0.87;;
10550;SDS011;5324;50.684;3.862;2023-01-16T07:41:21;0.67;;;0.60;;
10550;SDS011;5324;50.684;3.862;2023-01-16T07:43:47;1.87;;;0.83;;
10550;SDS011;5324;50.684;3.862;2023-01-16T07:46:13;2.70;;;1.13;;
10550;SDS011;5324;50.684;3.862;2023-01-16T07:48:39;0.80;;;0.80;;
10550;SDS011;5324;50.684;3.862;2023-01-16T07:51:06;1.60;;;0.90;;
10550;SDS011;5324;50.684;3.862;2023-01-16T07:53:32;0.97;;;0.90;;
10550;SDS011;5324;50.684;3.862;2023-01-16T07:56:00;0.80;;;0.80;;
10550;SDS011;5324;50.684;3.862;2023-01-16T07:58:27;3.37;;;1.17;;
10550;SDS011;5324;50.684;3.862;2023-01-16T08:00:54;1.10;;;1.00;;
10550;SDS011;5324;50.684;3.862;2023-01-16T08:03:20;0.80;;;0.80;;
10550;SDS011;5324;50.684;3.862;2023-01-16T08:05:46;1.73;;;1.00;;
10550;SDS011;5324;50.684;3.862;2023-01-16T08:08:13;1.20;;;1.10;;
10550;SDS011;5324;50.684;3.862;2023-01-16T08:10:39;1.63;;;0.93;;
10550;SDS011;5324;50.684;3.862;2023-01-16T08:13:05;2.53;;;1.40;;
10550;SDS011;5324;50.684;3.862;2023-01-16T08:15:31;1.30;;;1.20;;
10550;SDS011;5324;50.684;3.862;2023-01-16T08:17:57;2.30;;;0.90;;
10550;SDS011;5324;50.684;3.862;2023-01-16T08:20:23;1.40;;;1.10;;
10550;SDS011;5324;50.684;3.862;2023-01-16T08:22:52;1.07;;;0.90;;
10550;SDS011;5324;50.684;3.862;2023-01-16T08:25:20;2.23;;;1.50;;
10550;SDS011;5324;50.684;3.862;2023-01-16T08:27:47;1.20;;;1.17;;
10550;SDS011;5324;50.684;3.862;2023-01-16T08:30:13;2.57;;;1.30;;
10550;SDS011;5324;50.684;3.862;2023-01-16T08:32:40;0.80;;;0.80;;
10550;SDS011;5324;50.684;3.862;2023-01-16T08:35:07;1.57;;;1.10;;
10550;SDS011;5324;50.684;3.862;2023-01-16T08:37:33;1.60;;;0.90;;
10550;SDS011;5324;50.684;3.862;2023-01-16T08:39:59;0.90;;;0.90;;
10550;SDS011;5324;50.684;3.862;2023-01-16T08:42:28;0.77;;;0.77;;
10550;SDS011;5324;50.684;3.862;2023-01-16T08:45:12;0.83;;;0.83;;
10550;SDS011;5324;50.684;3.862;2023-01-16T08:47:57;0.80;;;0.80;;
10550;SDS011;5324;50.684;3.862;2023-01-16T08:50:43;0.90;;;0.90;;
10550;SDS011;5324;50.684;3.862;2023-01-16T08:53:28;0.80;;;0.80;;
10550;SDS011;5324;50.684;3.862;2023-01-16T08:55:54;0.80;;;0.80;;
10550;SDS011;5324;50.684;3.862;2023-01-16T08:58:20;0.90;;;0.90;;
10550;SDS011;5324;50.684;3.862;2023-01-16T09:00:47;1.10;;;1.10;;
10550;SDS011;5324;50.684;3.862;2023-01-16T09:03:13;3.17;;;0.90;;
10550;SDS011;5324;50.684;3.862;2023-01-16T09:05:41;0.63;;;0.63;;
10550;SDS011;5324;50.684;3.862;2023-01-16T09:08:10;1.57;;;1.10;;
10550;SDS011;5324;50.684;3.862;2023-01-16T09:10:36;1.37;;;1.27;;
10550;SDS011;5324;50.684;3.862;2023-01-16T09:13:02;1.40;;;1.30;;
10550;SDS011;5324;50.684;3.862;2023-01-16T09:15:47;2.50;;;1.00;;
10550;SDS011;5324;50.684;3.862;2023-01-16T09:18:13;1.10;;;1.10;;
10550;SDS011;5324;50.684;3.862;2023-01-16T09:20:39;1.97;;;1.03;;
10550;SDS011;5324;50.684;3.862;2023-01-16T09:23:05;0.90;;;0.90;;
10550;SDS011;5324;50.684;3.862;2023-01-16T09:25:31;0.97;;;0.97;;
10550;SDS011;5324;50.684;3.862;2023-01-16T09:27:58;0.80;;;0.80;;
10550;SDS011;5324;50.684;3.862;2023-01-16T09:30:25;0.73;;;0.73;;
10550;SDS011;5324;50.684;3.862;2023-01-16T09:32:51;0.97;;;0.97;;
10550;SDS011;5324;50.684;3.862;2023-01-16T09:35:17;0.70;;;0.70;;
10550;SDS011;5324;50.684;3.862;2023-01-16T09:37:43;1.20;;;1.20;;
10550;SDS011;5324;50.684;3.862;2023-01-16T09:40:13;1.10;;;1.03;;
10550;SDS011;5324;50.684;3.862;2023-01-16T09:45:29;0.80;;;0.80;;
10550;SDS011;5324;50.684;3.862;2023-01-16T09:47:58;1.47;;;1.37;;
10550;SDS011;5324;50.684;3.862;2023-01-16T09:50:30;0.90;;;0.90;;
10550;SDS011;5324;50.684;3.862;2023-01-16T09:52:58;1.03;;;0.70;;
10550;SDS011;5324;50.684;3.862;2023-01-16T09:55:44;0.80;;;0.80;;
10550;SDS011;5324;50.684;3.862;2023-01-16T09:58:30;0.70;;;0.70;;
10550;SDS011;5324;50.684;3.862;2023-01-16T10:01:03;0.90;;;0.90;;
10550;SDS011;5324;50.684;3.862;2023-01-16T10:03:29;1.00;;;1.00;;
10550;SDS011;5324;50.684;3.862;2023-01-16T10:14:08;0.80;;;0.80;;
10550;SDS011;5324;50.684;3.862;2023-01-16T10:29:37;0.93;;;0.87;;
10550;SDS011;5324;50.684;3.862;2023-01-16T10:32:06;0.70;;;0.70;;
10550;SDS011;5324;50.684;3.862;2023-01-16T10:37:02;1.00;;;0.90;;
10550;SDS011;5324;50.684;3.862;2023-01-16T10:39:31;1.03;;;0.90;;
10550;SDS011;5324;50.684;3.862;2023-01-16T10:42:21;1.27;;;1.17;;
10550;SDS011;5324;50.684;3.862;2023-01-16T10:47:55;1.50;;;1.40;;
10550;SDS011;5324;50.684;3.862;2023-01-16T10:50:40;2.07;;;1.37;;
10550;SDS011;5324;50.684;3.862;2023-01-16T10:53:07;2.27;;;1.37;;
10550;SDS011;5324;50.684;3.862;2023-01-16T10:55:34;1.13;;;1.10;;
10550;SDS011;5324;50.684;3.862;2023-01-16T10:58:03;1.30;;;1.03;;
10550;SDS011;5324;50.684;3.862;2023-01-16T11:00:34;1.47;;;1.07;;
10550;SDS011;5324;50.684;3.862;2023-01-16T11:03:23;1.33;;;0.70;;
10550;SDS011;5324;50.684;3.862;2023-01-16T11:05:49;0.80;;;0.80;;
10550;SDS011;5324;50.684;3.862;2023-01-16T11:08:17;0.70;;;0.70;;
10550;SDS011;5324;50.684;3.862;2023-01-16T11:10:47;1.03;;;1.00;;
10550;SDS011;5324;50.684;3.862;2023-01-16T11:13:18;1.00;;;1.00;;
10550;SDS011;5324;50.684;3.862;2023-01-16T11:18:54;2.03;;;1.00;;
10550;SDS011;5324;50.684;3.862;2023-01-16T11:21:30;0.87;;;0.87;;
10550;SDS011;5324;50.684;3.862;2023-01-16T11:24:01;0.93;;;0.93;;
10550;SDS011;5324;50.684;3.862;2023-01-16T11:26:29;0.80;;;0.70;;
10550;SDS011;5324;50.684;3.862;2023-01-16T11:28:56;1.33;;;1.10;;
10550;SDS011;5324;50.684;3.862;2023-01-16T11:31:24;2.53;;;1.57;;
10550;SDS011;5324;50.684;3.862;2023-01-16T11:33:56;5.00;;;3.37;;
10550;SDS011;5324;50.684;3.862;2023-01-16T11:36:26;10.23;;;5.13;;
10550;SDS011;5324;50.684;3.862;2023-01-16T11:38:53;6.53;;;3.50;;
10550;SDS011;5324;50.684;3.862;2023-01-16T11:41:40;4.13;;;3.13;;
10550;SDS011;5324;50.684;3.862;2023-01-16T11:44:09;3.90;;;2.33;;
10550;SDS011;5324;50.684;3.862;2023-01-16T11:46:57;1.90;;;1.80;;
10550;SDS011;5324;50.684;3.862;2023-01-16T11:50:16;2.30;;;1.80;;
10550;SDS011;5324;50.684;3.862;2023-01-16T11:52:13;1.30;;;1.30;;
10550;SDS011;5324;50.684;3.862;2023-01-16T11:54:52;1.50;;;1.20;;
10550;SDS011;5324;50.684;3.862;2023-01-16T12:05:31;1.83;;;1.63;;
10550;SDS011;5324;50.684;3.862;2023-01-16T12:16:20;1.20;;;1.10;;
10550;SDS011;5324;50.684;3.862;2023-01-16T12:21:34;1.20;;;1.10;;
10550;SDS011;5324;50.684;3.862;2023-01-16T12:26:36;1.37;;;1.27;;
10550;SDS011;5324;50.684;3.862;2023-01-16T12:29:12;1.40;;;1.20;;
10550;SDS011;5324;50.684;3.862;2023-01-16T12:40:15;1.47;;;1.37;;
10550;SDS011;5324;50.684;3.862;2023-01-16T12:42:24;1.77;;;1.50;;
10550;SDS011;5324;50.684;3.862;2023-01-16T12:50:18;1.47;;;1.37;;
10550;SDS011;5324;50.684;3.862;2023-01-16T12:58:12;1.33;;;1.23;;
10550;SDS011;5324;50.684;3.862;2023-01-16T13:00:58;4.40;;;1.27;;
10550;SDS011;5324;50.684;3.862;2023-01-16T13:03:31;3.70;;;1.20;;
10550;SDS011;5324;50.684;3.862;2023-01-16T13:06:00;1.30;;;1.23;;
10550;SDS011;5324;50.684;3.862;2023-01-16T13:10:59;1.50;;;1.40;;
10550;SDS011;5324;50.684;3.862;2023-01-16T13:13:56;1.00;;;1.00;;
10550;SDS011;5324;50.684;3.862;2023-01-16T13:17:09;1.10;;;1.00;;
10550;SDS011;5324;50.684;3.862;2023-01-16T13:19:14;1.60;;;1.50;;
10550;SDS011;5324;50.684;3.862;2023-01-16T13:24:30;1.70;;;1.60;;
10550;SDS011;5324;50.684;3.862;2023-01-16T13:26:58;1.47;;;1.10;;
10550;SDS011;5324;50.684;3.862;2023-01-16T13:32:05;1.50;;;1.40;;
10550;SDS011;5324;50.684;3.862;2023-01-16T13:34:33;1.33;;;1.23;;
10550;SDS011;5324;50.684;3.862;2023-01-16T13:42:23;1.30;;;1.00;;
10550;SDS011;5324;50.684;3.862;2023-01-16T13:44:54;1.10;;;1.00;;
10550;SDS011;5324;50.684;3.862;2023-01-16T13:47:40;1.00;;;1.00;;
10550;SDS011;5324;50.684;3.862;2023-01-16T13:50:07;0.90;;;0.90;;
10550;SDS011;5324;50.684;3.862;2023-01-16T13:52:40;1.50;;;1.10;;
10550;SDS011;5324;50.684;3.862;2023-01-16T13:55:14;1.17;;;1.07;;
10550;SDS011;5324;50.684;3.862;2023-01-16T13:57:46;1.00;;;1.00;;
10550;SDS011;5324;50.684;3.862;2023-01-16T14:00:15;1.13;;;1.13;;
10550;SDS011;5324;50.684;3.862;2023-01-16T14:02:43;1.07;;;1.03;;
10550;SDS011;5324;50.684;3.862;2023-01-16T14:10:42;2.60;;;1.47;;
10550;SDS011;5324;50.684;3.862;2023-01-16T14:13:21;2.80;;;1.10;;
10550;SDS011;5324;50.684;3.862;2023-01-16T14:18:37;1.20;;;1.03;;
10550;SDS011;5324;50.684;3.862;2023-01-16T14:21:04;1.43;;;1.27;;
10550;SDS011;5324;50.684;3.862;2023-01-16T14:23:31;1.03;;;0.93;;
10550;SDS011;5324;50.684;3.862;2023-01-16T14:26:19;1.20;;;1.10;;
10550;SDS011;5324;50.684;3.862;2023-01-16T14:28:49;1.37;;;1.10;;
10550;SDS011;5324;50.684;3.862;2023-01-16T14:31:21;0.97;;;0.97;;
10550;SDS011;5324;50.684;3.862;2023-01-16T14:33:48;2.13;;;1.03;;
10550;SDS011;5324;50.684;3.862;2023-01-16T14:36:14;1.30;;;1.10;;
10550;SDS011;5324;50.684;3.862;2023-01-16T14:38:43;0.97;;;0.97;;
10550;SDS011;5324;50.684;3.862;2023-01-16T14:41:11;1.30;;;0.97;;
10550;SDS011;5324;50.684;3.862;2023-01-16T14:44:18;1.57;;;1.10;;
10550;SDS011;5324;50.684;3.862;2023-01-16T14:50:15;2.67;;;1.53;;
10550;SDS011;5324;50.684;3.862;2023-01-16T14:58:32;2.00;;;1.10;;
10550;SDS011;5324;50.684;3.862;2023-01-16T15:00:59;3.47;;;1.40;;
10550;SDS011;5324;50.684;3.862;2023-01-16T15:03:45;1.63;;;1.20;;
10550;SDS011;5324;50.684;3.862;2023-01-16T15:06:11;2.00;;;0.87;;
10550;SDS011;5324;50.684;3.862;2023-01-16T15:08:38;1.03;;;0.90;;
10550;SDS011;5324;50.684;3.862;2023-01-16T15:11:08;2.70;;;1.03;;
10550;SDS011;5324;50.684;3.862;2023-01-16T15:14:05;1.10;;;1.10;;
10550;SDS011;5324;50.684;3.862;2023-01-16T15:20:05;1.40;;;1.30;;
10550;SDS011;5324;50.684;3.862;2023-01-16T15:22:51;1.40;;;0.80;;
10550;SDS011;5324;50.684;3.862;2023-01-16T15:30:50;0.80;;;0.80;;
10550;SDS011;5324;50.684;3.862;2023-01-16T15:33:29;1.27;;;1.17;;
10550;SDS011;5324;50.684;3.862;2023-01-16T15:36:23;1.77;;;1.50;;
10550;SDS011;5324;50.684;3.862;2023-01-16T15:38:54;1.27;;;1.00;;
10550;SDS011;5324;50.684;3.862;2023-01-16T15:41:22;1.30;;;1.23;;
10550;SDS011;5324;50.684;3.862;2023-01-16T15:44:10;3.83;;;1.20;;
10550;SDS011;5324;50.684;3.862;2023-01-16T15:47:08;0.73;;;0.73;;
10550;SDS011;5324;50.684;3.862;2023-01-16T15:52:13;4.07;;;1.87;;
10550;SDS011;5324;50.684;3.862;2023-01-16T15:54:39;4.27;;;1.87;;
10550;SDS011;5324;50.684;3.862;2023-01-16T15:57:10;3.80;;;1.30;;
10550;SDS011;5324;50.684;3.862;2023-01-16T15:59:38;1.57;;;0.90;;
10550;SDS011;5324;50.684;3.862;2023-01-16T16:02:17;4.13;;;1.20;;
10550;SDS011;5324;50.684;3.862;2023-01-16T16:04:44;2.33;;;1.37;;
10550;SDS011;5324;50.684;3.862;2023-01-16T16:07:11;6.83;;;1.17;;
10550;SDS011;5324;50.684;3.862;2023-01-16T16:09:37;3.93;;;1.50;;
10550;SDS011;5324;50.684;3.862;2023-01-16T16:12:04;2.00;;;1.40;;
10550;SDS011;5324;50.684;3.862;2023-01-16T16:14:31;3.63;;;2.07;;
10550;SDS011;5324;50.684;3.862;2023-01-16T16:17:25;2.87;;;1.30;;
10550;SDS011;5324;50.684;3.862;2023-01-16T16:28:15;1.13;;;1.10;;
10550;SDS011;5324;50.684;3.862;2023-01-16T16:30:42;1.33;;;1.03;;
10550;SDS011;5324;50.684;3.862;2023-01-16T16:33:17;1.70;;;1.17;;
10550;SDS011;5324;50.684;3.862;2023-01-16T16:35:48;1.10;;;1.00;;
10550;SDS011;5324;50.684;3.862;2023-01-16T16:38:19;1.40;;;1.00;;
10550;SDS011;5324;50.684;3.862;2023-01-16T16:40:50;3.20;;;0.77;;
10550;SDS011;5324;50.684;3.862;2023-01-16T16:43:41;1.07;;;0.70;;
10550;SDS011;5324;50.684;3.862;2023-01-16T16:48:51;1.40;;;1.00;;
10550;SDS011;5324;50.684;3.862;2023-01-16T16:51:27;1.50;;;1.00;;
10550;SDS011;5324;50.684;3.862;2023-01-16T16:53:53;0.93;;;0.87;;
10550;SDS011;5324;50.684;3.862;2023-01-16T16:56:22;1.00;;;1.00;;
10550;SDS011;5324;50.684;3.862;2023-01-16T16:58:50;3.10;;;1.23;;
10550;SDS011;5324;50.684;3.862;2023-01-16T17:01:17;2.70;;;1.10;;
10550;SDS011;5324;50.684;3.862;2023-01-16T17:03:43;3.30;;;1.30;;
10550;SDS011;5324;50.684;3.862;2023-01-16T17:06:13;1.80;;;1.60;;
10550;SDS011;5324;50.684;3.862;2023-01-16T17:08:40;3.47;;;1.30;;
10550;SDS011;5324;50.684;3.862;2023-01-16T17:11:08;1.77;;;1.17;;
10550;SDS011;5324;50.684;3.862;2023-01-16T17:13:34;2.97;;;1.57;;
10550;SDS011;5324;50.684;3.862;2023-01-16T17:16:00;2.03;;;1.73;;
10550;SDS011;5324;50.684;3.862;2023-01-16T17:18:26;2.63;;;1.43;;
10550;SDS011;5324;50.684;3.862;2023-01-16T17:20:53;4.37;;;1.70;;
10550;SDS011;5324;50.684;3.862;2023-01-16T17:23:20;4.23;;;1.70;;
10550;SDS011;5324;50.684;3.862;2023-01-16T17:25:47;3.60;;;1.80;;
10550;SDS011;5324;50.684;3.862;2023-01-16T17:28:13;3.43;;;1.50;;
10550;SDS011;5324;50.684;3.862;2023-01-16T17:30:39;6.23;;;2.07;;
10550;SDS011;5324;50.684;3.862;2023-01-16T17:35:38;6.67;;;2.17;;
10550;SDS011;5324;50.684;3.862;2023-01-16T17:38:07;4.43;;;2.20;;
10550;SDS011;5324;50.684;3.862;2023-01-16T17:40:35;4.57;;;2.30;;
10550;SDS011;5324;50.684;3.862;2023-01-16T17:43:01;3.50;;;2.13;;
10550;SDS011;5324;50.684;3.862;2023-01-16T17:45:46;5.17;;;2.90;;
10550;SDS011;5324;50.684;3.862;2023-01-16T17:48:21;9.63;;;2.90;;
10550;SDS011;5324;50.684;3.862;2023-01-16T17:50:47;3.07;;;2.27;;
10550;SDS011;5324;50.684;3.862;2023-01-16T17:53:14;7.60;;;3.20;;
10550;SDS011;5324;50.684;3.862;2023-01-16T17:55:43;4.03;;;2.57;;
10550;SDS011;5324;50.684;3.862;2023-01-16T17:58:15;7.60;;;3.00;;
10550;SDS011;5324;50.684;3.862;2023-01-16T18:00:43;4.83;;;3.00;;
10550;SDS011;5324;50.684;3.862;2023-01-16T18:03:09;3.80;;;2.97;;
10550;SDS011;5324;50.684;3.862;2023-01-16T18:05:35;7.97;;;3.23;;
10550;SDS011;5324;50.684;3.862;2023-01-16T18:08:01;5.93;;;2.93;;
10550;SDS011;5324;50.684;3.862;2023-01-16T18:10:27;5.83;;;2.67;;
10550;SDS011;5324;50.684;3.862;2023-01-16T18:12:53;6.00;;;2.33;;
10550;SDS011;5324;50.684;3.862;2023-01-16T18:15:38;3.93;;;2.23;;
10550;SDS011;5324;50.684;3.862;2023-01-16T18:18:23;9.53;;;2.60;;
10550;SDS011;5324;50.684;3.862;2023-01-16T18:20:49;7.33;;;2.50;;